createdAt,value
2023-08-15T00:00:17.695Z,13.80
2023-08-15T00:03:59.853Z,13.70
2023-08-15T00:07:41.975Z,13.70
2023-08-15T00:11:24.684Z,13.70
2023-08-15T00:15:07.286Z,13.60
2023-08-15T00:18:49.258Z,13.60
2023-08-15T00:22:31.325Z,13.60
2023-08-15T00:26:13.373Z,13.50
2023-08-15T00:29:55.418Z,13.50
2023-08-15T00:33:37.419Z,13.50
2023-08-15T00:37:19.641Z,13.50
2023-08-15T00:41:01.773Z,13.40
2023-08-15T00:44:45.198Z,13.40
2023-08-15T00:48:31.044Z,13.40
2023-08-15T00:52:16.268Z,13.30
2023-08-15T00:55:59.581Z,13.20
2023-08-15T00:59:44.823Z,13.20
2023-08-15T01:03:27.048Z,13.10
2023-08-15T01:07:10.782Z,13.00
2023-08-15T01:10:52.809Z,12.90
2023-08-15T01:14:44.417Z,12.90
2023-08-15T01:18:35.925Z,12.80
2023-08-15T01:22:27.554Z,12.80
2023-08-15T01:26:09.562Z,12.70
2023-08-15T01:29:51.583Z,12.70
2023-08-15T01:33:42.263Z,12.60
2023-08-15T01:37:32.998Z,12.60
2023-08-15T01:41:19.591Z,12.50
2023-08-15T01:45:02.535Z,12.50
2023-08-15T01:48:44.568Z,12.50
2023-08-15T01:52:26.641Z,12.50
2023-08-15T01:56:08.789Z,12.40
2023-08-15T01:59:50.837Z,12.40
2023-08-15T02:03:32.844Z,12.40
2023-08-15T02:07:14.878Z,12.30
2023-08-15T02:10:56.884Z,12.30
2023-08-15T02:14:39.003Z,12.30
2023-08-15T02:18:20.965Z,12.30
2023-08-15T02:22:03.033Z,12.20
2023-08-15T02:25:45.075Z,12.20
2023-08-15T02:29:27.168Z,12.10
2023-08-15T02:33:09.854Z,12.10
2023-08-15T02:36:51.965Z,12.10
2023-08-15T02:40:34.143Z,12.10
2023-08-15T02:44:16.138Z,12.10
2023-08-15T02:47:58.142Z,12.10
2023-08-15T02:51:40.287Z,12.10
2023-08-15T02:55:22.276Z,12.10
2023-08-15T02:59:04.439Z,12.10
2023-08-15T03:02:46.460Z,12.10
2023-08-15T03:06:28.591Z,12.00
2023-08-15T03:10:10.680Z,12.00
2023-08-15T03:13:54.045Z,12.00
2023-08-15T03:17:36.314Z,12.00
2023-08-15T03:21:18.382Z,12.00
2023-08-15T03:25:00.397Z,12.00
2023-08-15T03:28:42.391Z,12.00
2023-08-15T03:32:24.383Z,11.90
2023-08-15T03:36:06.762Z,11.90
2023-08-15T03:39:48.759Z,11.90
2023-08-15T03:43:37.132Z,11.80
2023-08-15T03:47:22.482Z,11.80
2023-08-15T03:51:05.280Z,11.80
2023-08-15T03:54:47.244Z,11.80
2023-08-15T03:58:29.341Z,11.80
2023-08-15T04:02:11.509Z,11.80
2023-08-15T04:05:53.600Z,11.80
2023-08-15T04:09:35.632Z,11.80
2023-08-15T04:13:17.614Z,11.80
2023-08-15T04:16:59.601Z,11.80
2023-08-15T04:20:43.309Z,11.80
2023-08-15T04:24:25.261Z,11.80
2023-08-15T04:28:08.173Z,11.80
2023-08-15T04:31:50.190Z,11.80
2023-08-15T04:35:32.308Z,11.80
2023-08-15T04:39:19.127Z,11.70
2023-08-15T04:43:01.273Z,11.70
2023-08-15T04:46:43.276Z,11.70
2023-08-15T04:50:25.406Z,11.70
2023-08-15T04:54:07.409Z,11.70
2023-08-15T04:57:49.392Z,11.60
2023-08-15T05:01:31.553Z,11.60
2023-08-15T05:05:13.712Z,11.60
2023-08-15T05:08:55.714Z,11.60
2023-08-15T05:12:37.760Z,11.60
2023-08-15T05:16:19.783Z,11.70
2023-08-15T05:20:01.848Z,11.70
2023-08-15T05:23:43.911Z,11.70
2023-08-15T05:27:25.979Z,11.70
2023-08-15T05:31:10.394Z,11.80
2023-08-15T05:34:52.576Z,11.80
2023-08-15T05:38:34.594Z,11.90
2023-08-15T05:42:19.134Z,11.90
2023-08-15T05:46:01.131Z,12.00
2023-08-15T05:49:44.045Z,12.10
2023-08-15T05:53:26.007Z,12.20
2023-08-15T05:57:08.049Z,12.40
2023-08-15T06:00:50.142Z,12.60
2023-08-15T06:04:32.326Z,12.70
2023-08-15T06:08:14.405Z,12.80
2023-08-15T06:11:56.503Z,13.00
2023-08-15T06:15:38.462Z,13.10
2023-08-15T06:19:21.285Z,13.30
2023-08-15T06:23:03.345Z,13.40
2023-08-15T06:26:45.394Z,13.60
2023-08-15T06:30:27.401Z,13.80
2023-08-15T06:34:09.449Z,13.90
2023-08-15T06:37:51.413Z,14.00
2023-08-15T06:41:33.460Z,14.20
2023-08-15T06:45:17.618Z,14.40
2023-08-15T06:48:59.621Z,14.80
2023-08-15T06:52:41.697Z,15.10
2023-08-15T06:56:23.747Z,15.20
2023-08-15T07:00:08.804Z,15.30
2023-08-15T07:03:50.879Z,15.50
2023-08-15T07:07:32.904Z,15.60
2023-08-15T07:11:14.999Z,15.80
2023-08-15T07:14:57.031Z,16.00
2023-08-15T07:18:39.113Z,16.10
2023-08-15T07:22:21.200Z,16.50
2023-08-15T07:26:04.134Z,16.80
2023-08-15T07:29:46.133Z,17.20
2023-08-15T07:33:28.443Z,17.50
2023-08-15T07:37:11.144Z,17.90
2023-08-15T07:40:53.202Z,18.20
2023-08-15T07:44:35.321Z,18.40
2023-08-15T07:48:18.086Z,18.50
2023-08-15T07:52:00.122Z,18.50
2023-08-15T07:55:42.271Z,18.40
2023-08-15T07:59:24.276Z,18.20
2023-08-15T08:03:09.117Z,18.00
2023-08-15T08:06:52.113Z,17.90
2023-08-15T08:10:34.240Z,17.90
2023-08-15T08:14:16.281Z,18.00
2023-08-15T08:17:58.453Z,18.10
2023-08-15T08:21:40.538Z,18.20
2023-08-15T08:25:24.267Z,18.30
2023-08-15T08:29:06.238Z,18.30
2023-08-15T08:32:49.052Z,18.50
2023-08-15T08:36:31.075Z,18.70
2023-08-15T08:40:14.074Z,18.90
2023-08-15T08:43:56.915Z,19.10
2023-08-15T08:47:43.522Z,19.30
2023-08-15T08:51:28.911Z,19.60
2023-08-15T08:55:11.603Z,19.70
2023-08-15T08:59:03.015Z,19.90
2023-08-15T09:02:46.104Z,20.10
2023-08-15T09:06:28.793Z,20.50
2023-08-15T09:10:11.071Z,20.70
2023-08-15T09:13:53.024Z,20.80
2023-08-15T09:17:35.334Z,21.00
2023-08-15T09:21:17.341Z,21.30
2023-08-15T09:24:59.334Z,22.00
2023-08-15T09:28:45.941Z,23.00
2023-08-15T09:32:28.649Z,23.70
2023-08-15T09:36:11.481Z,24.10
2023-08-15T09:39:53.538Z,24.10
2023-08-15T09:43:35.695Z,23.80
2023-08-15T09:47:20.947Z,23.50
2023-08-15T09:51:04.788Z,23.70
2023-08-15T09:54:47.288Z,23.70
2023-08-15T09:58:29.334Z,23.60
2023-08-15T10:02:24.032Z,23.50
2023-08-15T10:06:12.972Z,23.40
2023-08-15T10:09:57.247Z,23.10
2023-08-15T10:13:40.266Z,22.80
2023-08-15T10:17:22.693Z,22.60
2023-08-15T10:21:05.102Z,22.50
2023-08-15T10:24:47.916Z,22.40
2023-08-15T10:28:34.286Z,22.30
2023-08-15T10:32:24.684Z,22.50
2023-08-15T10:36:08.615Z,23.10
2023-08-15T10:40:10.183Z,23.80
2023-08-15T10:43:55.400Z,23.70
2023-08-15T10:47:43.596Z,24.40
2023-08-15T10:51:58.742Z,25.80
2023-08-15T10:55:41.155Z,26.60
2023-08-15T10:59:24.991Z,27.10
2023-08-15T11:03:08.608Z,27.60
2023-08-15T11:06:53.899Z,27.70
2023-08-15T11:10:36.131Z,27.60
2023-08-15T11:14:19.389Z,27.40
2023-08-15T11:18:01.472Z,26.90
2023-08-15T11:21:48.164Z,26.80
2023-08-15T11:25:30.335Z,27.40
2023-08-15T11:29:14.272Z,27.40
2023-08-15T11:32:57.057Z,27.40
2023-08-15T11:36:39.109Z,27.80
2023-08-15T11:40:21.196Z,28.90
2023-08-15T11:44:04.143Z,29.30
2023-08-15T11:47:53.277Z,28.80
2023-08-15T11:51:35.343Z,28.90
2023-08-15T11:55:19.534Z,29.50
2023-08-15T11:59:05.412Z,29.30
2023-08-15T12:02:49.233Z,28.60
2023-08-15T12:06:32.054Z,27.90
2023-08-15T12:10:16.260Z,27.30
2023-08-15T12:14:01.594Z,26.80
2023-08-15T12:17:43.766Z,26.70
2023-08-15T12:21:25.792Z,26.80
2023-08-15T12:25:11.740Z,26.60
2023-08-15T12:28:53.737Z,26.70
2023-08-15T12:32:35.862Z,26.80
2023-08-15T12:36:18.080Z,26.40
2023-08-15T12:40:00.458Z,26.00
2023-08-15T12:43:42.840Z,26.20
2023-08-15T12:47:25.044Z,27.00
2023-08-15T12:51:07.073Z,27.80
2023-08-15T12:54:51.767Z,28.60
2023-08-15T12:58:33.844Z,29.10
2023-08-15T13:02:16.033Z,29.70
2023-08-15T13:05:57.995Z,30.00
2023-08-15T13:09:40.025Z,29.80
2023-08-15T13:13:22.082Z,29.50
2023-08-15T13:17:05.079Z,29.20
2023-08-15T13:20:47.337Z,29.40
2023-08-15T13:24:29.623Z,29.40
2023-08-15T13:28:11.705Z,29.40
2023-08-15T13:31:53.712Z,29.50
2023-08-15T13:35:35.674Z,29.50
2023-08-15T13:39:17.757Z,29.40
2023-08-15T13:43:00.440Z,28.80
2023-08-15T13:46:44.056Z,28.30
2023-08-15T13:50:26.160Z,28.10
2023-08-15T13:54:08.232Z,27.70
2023-08-15T13:57:50.187Z,27.30
2023-08-15T14:01:33.569Z,27.10
2023-08-15T14:05:15.564Z,27.00
2023-08-15T14:08:57.625Z,26.90
2023-08-15T14:12:39.642Z,26.80
2023-08-15T14:16:21.892Z,26.70
2023-08-15T14:20:05.000Z,26.70
2023-08-15T14:23:47.974Z,26.90
2023-08-15T14:27:30.058Z,27.00
2023-08-15T14:31:12.155Z,27.20
2023-08-15T14:34:54.964Z,27.10
2023-08-15T14:38:38.332Z,27.10
2023-08-15T14:42:20.817Z,27.00
2023-08-15T14:46:03.244Z,26.90
2023-08-15T14:49:45.316Z,26.90
2023-08-15T14:53:27.395Z,26.80
2023-08-15T14:57:09.544Z,26.70
2023-08-15T15:00:51.642Z,26.60
2023-08-15T15:04:33.646Z,26.70
2023-08-15T15:08:15.668Z,27.10
2023-08-15T15:11:57.670Z,27.70
2023-08-15T15:15:51.830Z,28.00
2023-08-15T15:19:36.025Z,28.30
2023-08-15T15:23:18.177Z,28.50
2023-08-15T15:27:00.701Z,28.70
2023-08-15T15:30:42.739Z,29.00
2023-08-15T15:34:25.205Z,29.10
2023-08-15T15:38:07.309Z,29.30
2023-08-15T15:41:49.418Z,29.60
2023-08-15T15:45:31.425Z,29.50
2023-08-15T15:49:13.422Z,29.30
2023-08-15T15:52:55.430Z,29.00
2023-08-15T15:56:37.457Z,28.70
2023-08-15T16:00:21.869Z,28.30
2023-08-15T16:04:04.231Z,27.80
2023-08-15T16:07:46.262Z,27.30
2023-08-15T16:11:28.255Z,26.90
2023-08-15T16:15:10.735Z,26.60
2023-08-15T16:18:52.751Z,26.20
2023-08-15T16:22:34.797Z,25.90
2023-08-15T16:26:18.569Z,25.70
2023-08-15T16:30:14.973Z,25.40
2023-08-15T16:33:59.704Z,25.10
2023-08-15T16:37:41.795Z,24.90
2023-08-15T16:41:23.791Z,24.60
2023-08-15T16:45:06.347Z,24.50
2023-08-15T16:48:48.507Z,24.20
2023-08-15T16:52:30.620Z,24.00
2023-08-15T16:56:12.632Z,24.00
2023-08-15T16:59:54.637Z,23.90
2023-08-15T17:03:36.796Z,23.70
2023-08-15T17:07:18.979Z,23.50
2023-08-15T17:11:00.976Z,23.40
2023-08-15T17:14:43.008Z,23.20
2023-08-15T17:18:25.005Z,23.10
2023-08-15T17:22:06.993Z,22.90
2023-08-15T17:25:50.245Z,22.80
2023-08-15T17:29:32.394Z,22.60
2023-08-15T17:33:14.456Z,22.50
2023-08-15T17:36:56.498Z,22.40
2023-08-15T17:40:38.990Z,22.30
2023-08-15T17:44:21.294Z,22.10
2023-08-15T17:48:03.615Z,21.90
2023-08-15T17:51:45.925Z,21.80
2023-08-15T17:55:27.924Z,21.70
2023-08-15T17:59:10.096Z,21.60
2023-08-15T18:02:52.138Z,21.50
2023-08-15T18:06:35.624Z,21.30
2023-08-15T18:10:17.738Z,21.30
2023-08-15T18:14:01.722Z,21.30
2023-08-15T18:17:43.750Z,21.20
2023-08-15T18:21:25.944Z,21.20
2023-08-15T18:25:08.448Z,21.20
2023-08-15T18:28:50.466Z,21.10
2023-08-15T18:32:32.529Z,21.10
2023-08-15T18:36:17.139Z,21.00
2023-08-15T18:39:59.160Z,21.00
2023-08-15T18:43:41.235Z,20.90
2023-08-15T18:47:23.294Z,20.80
2023-08-15T18:51:05.406Z,20.70
2023-08-15T18:54:47.353Z,20.60
2023-08-15T18:58:29.327Z,20.50
2023-08-15T19:02:11.332Z,20.40
2023-08-15T19:05:53.376Z,20.30
2023-08-15T19:09:35.436Z,20.10
2023-08-15T19:13:22.612Z,20.00
2023-08-15T19:17:08.403Z,19.90
2023-08-15T19:20:50.569Z,19.80
2023-08-15T19:24:32.545Z,19.70
2023-08-15T19:28:16.531Z,19.60
2023-08-15T19:31:59.593Z,19.50
2023-08-15T19:35:41.617Z,19.40
2023-08-15T19:39:23.628Z,19.30
2023-08-15T19:43:06.126Z,19.10
2023-08-15T19:46:48.669Z,19.00
2023-08-15T19:50:30.718Z,18.90
2023-08-15T19:54:12.750Z,18.80
2023-08-15T19:57:54.858Z,18.70
2023-08-15T20:01:37.043Z,18.60
2023-08-15T20:05:19.238Z,18.50
2023-08-15T20:09:01.211Z,18.40
2023-08-15T20:12:43.213Z,18.40
2023-08-15T20:16:26.241Z,18.30
2023-08-15T20:20:09.504Z,18.20
2023-08-15T20:23:51.510Z,18.10
2023-08-15T20:27:33.681Z,18.00
2023-08-15T20:31:15.741Z,17.90
2023-08-15T20:34:57.814Z,17.80
2023-08-15T20:38:39.782Z,17.70
2023-08-15T20:42:21.960Z,17.70
2023-08-15T20:46:04.366Z,17.60
2023-08-15T20:49:47.575Z,17.50
2023-08-15T20:53:29.610Z,17.50
2023-08-15T20:57:11.707Z,17.40
2023-08-15T21:00:53.776Z,17.40
2023-08-15T21:04:35.797Z,17.40
2023-08-15T21:08:17.831Z,17.30
2023-08-15T21:11:59.898Z,17.30
2023-08-15T21:15:41.853Z,17.20
2023-08-15T21:19:23.884Z,17.20
2023-08-15T21:23:06.025Z,17.10
2023-08-15T21:26:48.205Z,17.10
2023-08-15T21:30:30.244Z,17.00
2023-08-15T21:34:12.429Z,17.00
2023-08-15T21:37:54.504Z,16.90
2023-08-15T21:41:36.507Z,16.90
2023-08-15T21:45:19.963Z,16.80
2023-08-15T21:49:01.996Z,16.70
2023-08-15T21:52:43.942Z,16.60
2023-08-15T21:56:26.053Z,16.60
2023-08-15T22:00:08.520Z,16.50
2023-08-15T22:03:50.707Z,16.40
2023-08-15T22:07:32.916Z,16.40
2023-08-15T22:11:14.918Z,16.30
2023-08-15T22:14:57.192Z,16.30
2023-08-15T22:18:39.300Z,16.20
2023-08-15T22:22:21.482Z,16.10
2023-08-15T22:26:03.522Z,16.10
2023-08-15T22:29:45.552Z,16.00
2023-08-15T22:33:27.623Z,16.00
2023-08-15T22:37:09.600Z,16.00
2023-08-15T22:40:51.663Z,15.90
2023-08-15T22:44:35.895Z,15.80
2023-08-15T22:48:18.079Z,15.80
2023-08-15T22:52:00.106Z,15.70
2023-08-15T22:55:42.163Z,15.70
2023-08-15T22:59:28.452Z,15.60
2023-08-15T23:03:10.508Z,15.60
2023-08-15T23:06:52.548Z,15.50
2023-08-15T23:10:34.567Z,15.50
2023-08-15T23:14:16.625Z,15.40
2023-08-15T23:17:58.701Z,15.30
2023-08-15T23:21:42.851Z,15.30
2023-08-15T23:25:24.990Z,15.20
2023-08-15T23:29:06.964Z,15.20
2023-08-15T23:32:48.999Z,15.10
2023-08-15T23:36:31.514Z,15.10
2023-08-15T23:40:14.081Z,15.00
2023-08-15T23:43:56.246Z,15.00
2023-08-15T23:47:38.416Z,14.90
2023-08-15T23:51:20.469Z,14.90
2023-08-15T23:55:02.636Z,14.90
2023-08-15T23:58:46.185Z,14.80
